Time;durP1;ratioP1;P1;durP2;ratioP2;P2;SDS_P1;SDS_P2;PMS_P1;PMS_P2;Temp;Humidity;BMP_temperature;BMP_pressure;BME280_temperature;BME280_humidity;BME280_pressure;Samples;Min_cycle;Max_cycle;Signal;HPM_P1;HPM_P2
2022/07/30 00:02:23;;;;;;;7.70;2.40;;;;;;;;;;5052890;28;20467;-65
2022/07/30 00:04:49;;;;;;;3.70;2.33;;;;;;;;;;5052963;28;20501;-65
2022/07/30 00:07:15;;;;;;;4.00;2.93;;;;;;;;;;5052950;28;20405;-65
2022/07/30 00:09:41;;;;;;;5.80;2.90;;;;;;;;;;5052974;28;20463;-65
2022/07/30 00:12:07;;;;;;;4.70;3.10;;;;;;;;;;5053202;28;20755;-65
2022/07/30 00:14:34;;;;;;;2.77;2.67;;;;;;;;;;5052989;28;20395;-66
2022/07/30 00:17:00;;;;;;;3.00;2.83;;;;;;;;;;5052916;28;20499;-66
2022/07/30 00:19:26;;;;;;;3.13;2.70;;;;;;;;;;5052882;28;20450;-65
2022/07/30 00:21:53;;;;;;;2.70;2.30;;;;;;;;;;5052786;28;21046;-65
2022/07/30 00:24:19;;;;;;;9.03;2.57;;;;;;;;;;5052751;28;20404;-65
2022/07/30 00:26:45;;;;;;;5.13;2.83;;;;;;;;;;5053635;28;20882;-66
2022/07/30 00:29:11;;;;;;;8.60;2.80;;;;;;;;;;5056520;28;20432;-67
2022/07/30 00:31:38;;;;;;;9.53;2.77;;;;;;;;;;5056460;28;20429;-65
2022/07/30 00:34:04;;;;;;;2.97;2.87;;;;;;;;;;5056431;28;20403;-65
2022/07/30 00:36:30;;;;;;;4.63;2.80;;;;;;;;;;5056367;28;20446;-65
2022/07/30 00:38:56;;;;;;;2.80;2.63;;;;;;;;;;5056393;28;20395;-65
2022/07/30 00:41:22;;;;;;;2.93;2.80;;;;;;;;;;5056189;28;20542;-65
2022/07/30 00:43:48;;;;;;;8.47;3.50;;;;;;;;;;5056173;28;20461;-66
2022/07/30 00:46:14;;;;;;;7.60;3.17;;;;;;;;;;5056507;28;20565;-65
2022/07/30 00:48:40;;;;;;;3.90;3.70;;;;;;;;;;5056169;28;20850;-65
2022/07/30 00:51:06;;;;;;;3.00;2.80;;;;;;;;;;5056092;28;20391;-65
2022/07/30 00:53:33;;;;;;;6.00;2.80;;;;;;;;;;5055788;28;20497;-66
2022/07/30 00:55:59;;;;;;;7.47;3.63;;;;;;;;;;5056046;28;20389;-65
2022/07/30 00:58:25;;;;;;;3.60;2.70;;;;;;;;;;5056054;28;20404;-66
2022/07/30 01:00:51;;;;;;;4.40;2.73;;;;;;;;;;5056053;28;20478;-65
2022/07/30 01:03:17;;;;;;;6.10;3.10;;;;;;;;;;5056131;28;20478;-65
2022/07/30 01:05:44;;;;;;;17.00;3.17;;;;;;;;;;5056181;28;20406;-66
2022/07/30 01:08:10;;;;;;;3.70;2.63;;;;;;;;;;5055788;28;20769;-66
2022/07/30 01:10:36;;;;;;;3.23;2.90;;;;;;;;;;5055807;28;20395;-65
2022/07/30 01:13:02;;;;;;;4.60;3.10;;;;;;;;;;5055743;28;20405;-66
2022/07/30 01:15:29;;;;;;;6.00;3.20;;;;;;;;;;5055904;28;20422;-65
2022/07/30 01:17:56;;;;;;;3.13;3.03;;;;;;;;;;5055998;28;20828;-66
2022/07/30 01:20:32;;;;;;;7.73;3.07;;;;;;;;;;5055516;28;20606;-66
2022/07/30 01:23:10;;;;;;;3.23;2.93;;;;;;;;;;5055337;28;20472;-65
2022/07/30 01:25:54;;;;;;;2.90;2.70;;;;;;;;;;5055517;28;20846;-66
2022/07/30 01:28:22;;;;;;;3.53;2.70;;;;;;;;;;5055472;28;20811;-66
2022/07/30 01:30:49;;;;;;;2.77;2.57;;;;;;;;;;5055421;28;20475;-66
2022/07/30 01:33:17;;;;;;;5.20;2.90;;;;;;;;;;5055363;28;20525;-65
2022/07/30 01:35:44;;;;;;;2.77;2.60;;;;;;;;;;5055283;28;20403;-66
2022/07/30 01:38:12;;;;;;;3.47;3.17;;;;;;;;;;5054817;28;20409;-65
2022/07/30 01:40:38;;;;;;;4.30;3.03;;;;;;;;;;5055300;28;20414;-66
2022/07/30 01:43:06;;;;;;;5.97;3.13;;;;;;;;;;5055113;28;20465;-65
2022/07/30 01:45:32;;;;;;;3.37;3.27;;;;;;;;;;5055121;28;20412;-66
2022/07/30 01:47:59;;;;;;;2.90;2.83;;;;;;;;;;5055131;28;20442;-65
2022/07/30 01:50:26;;;;;;;4.00;2.60;;;;;;;;;;5055051;28;20453;-66
2022/07/30 01:52:53;;;;;;;2.83;2.60;;;;;;;;;;5055006;28;20734;-67
2022/07/30 01:55:27;;;;;;;8.40;2.87;;;;;;;;;;5055079;28;20770;-66
2022/07/30 01:57:54;;;;;;;3.03;2.93;;;;;;;;;;5055012;28;20404;-67
2022/07/30 02:00:20;;;;;;;3.87;3.60;;;;;;;;;;5054873;28;20412;-65
2022/07/30 02:02:46;;;;;;;4.70;3.40;;;;;;;;;;5055019;28;20481;-65
2022/07/30 02:05:13;;;;;;;3.00;2.67;;;;;;;;;;5054766;28;20454;-66
2022/07/30 02:07:42;;;;;;;4.33;3.40;;;;;;;;;;5054967;28;20408;-66
2022/07/30 02:10:12;;;;;;;2.97;2.73;;;;;;;;;;5054636;28;20425;-65
2022/07/30 02:12:40;;;;;;;7.40;3.20;;;;;;;;;;5054663;28;20405;-65
2022/07/30 02:15:19;;;;;;;5.47;2.90;;;;;;;;;;5054799;28;20408;-65
2022/07/30 02:18:15;;;;;;;2.80;2.80;;;;;;;;;;5054761;28;20411;-65
2022/07/30 02:20:43;;;;;;;5.60;3.30;;;;;;;;;;4983689;28;20563;-65
2022/07/30 02:23:10;;;;;;;3.43;3.13;;;;;;;;;;5054422;28;20865;-66
2022/07/30 02:25:38;;;;;;;2.90;2.80;;;;;;;;;;5054335;28;20405;-65
2022/07/30 02:28:08;;;;;;;2.80;2.60;;;;;;;;;;5054631;28;20405;-65
2022/07/30 02:30:35;;;;;;;3.30;3.00;;;;;;;;;;5054512;28;20417;-65
2022/07/30 02:33:04;;;;;;;6.13;2.90;;;;;;;;;;5054512;28;20814;-66
2022/07/30 02:35:31;;;;;;;3.40;3.10;;;;;;;;;;5054419;28;20766;-66
2022/07/30 02:37:58;;;;;;;3.13;2.93;;;;;;;;;;5054175;28;20392;-65
2022/07/30 02:40:25;;;;;;;4.63;3.00;;;;;;;;;;5054376;28;20773;-65
2022/07/30 02:42:51;;;;;;;2.90;2.80;;;;;;;;;;5054199;28;20555;-65
2022/07/30 02:45:18;;;;;;;3.03;2.93;;;;;;;;;;5054240;28;20405;-65
2022/07/30 02:47:49;;;;;;;3.17;3.00;;;;;;;;;;5054220;28;20495;-64
2022/07/30 02:50:16;;;;;;;3.27;2.77;;;;;;;;;;5053268;28;20406;-65
2022/07/30 02:52:42;;;;;;;10.13;3.10;;;;;;;;;;5053901;28;20422;-65
2022/07/30 02:55:09;;;;;;;4.10;2.97;;;;;;;;;;5053701;28;20400;-66
2022/07/30 02:57:35;;;;;;;3.77;3.47;;;;;;;;;;5053525;28;20413;-65
2022/07/30 03:00:02;;;;;;;3.37;3.10;;;;;;;;;;5053504;28;20479;-66
2022/07/30 03:02:28;;;;;;;3.80;3.50;;;;;;;;;;5053834;28;20469;-64
2022/07/30 03:04:54;;;;;;;3.53;3.13;;;;;;;;;;5053467;28;20504;-66
2022/07/30 03:07:21;;;;;;;4.57;3.50;;;;;;;;;;5053478;28;20412;-66
2022/07/30 03:09:47;;;;;;;3.40;3.20;;;;;;;;;;5053503;28;20401;-65
2022/07/30 03:12:13;;;;;;;2.93;2.73;;;;;;;;;;5053627;28;20489;-66
2022/07/30 03:14:40;;;;;;;4.90;3.40;;;;;;;;;;5053857;28;20434;-66
2022/07/30 03:17:06;;;;;;;5.03;3.77;;;;;;;;;;5053600;28;20426;-66
2022/07/30 03:19:33;;;;;;;4.00;3.80;;;;;;;;;;5052940;28;20847;-65
2022/07/30 03:22:01;;;;;;;3.30;3.10;;;;;;;;;;5035493;28;20477;-65
2022/07/30 03:24:28;;;;;;;3.30;3.10;;;;;;;;;;5053505;28;20400;-65
2022/07/30 03:26:55;;;;;;;3.13;2.83;;;;;;;;;;5053549;28;20776;-65
2022/07/30 03:29:23;;;;;;;3.73;3.33;;;;;;;;;;5053383;28;20491;-66
2022/07/30 03:31:49;;;;;;;4.70;3.33;;;;;;;;;;5053379;28;20414;-65
2022/07/30 03:34:16;;;;;;;5.10;3.90;;;;;;;;;;5053022;28;20401;-65
2022/07/30 03:36:42;;;;;;;3.87;3.67;;;;;;;;;;5053224;28;20869;-67
2022/07/30 03:39:08;;;;;;;3.10;3.00;;;;;;;;;;5052600;28;20405;-65
2022/07/30 03:41:38;;;;;;;3.30;3.20;;;;;;;;;;5052759;28;20953;-66
2022/07/30 03:44:04;;;;;;;5.17;3.43;;;;;;;;;;5053564;28;20564;-65
2022/07/30 03:46:31;;;;;;;3.67;3.40;;;;;;;;;;5034997;28;20407;-65
2022/07/30 03:48:57;;;;;;;3.30;3.20;;;;;;;;;;5052923;28;20887;-66
2022/07/30 03:51:23;;;;;;;4.30;4.00;;;;;;;;;;5053048;28;20411;-65
2022/07/30 03:53:50;;;;;;;4.77;4.30;;;;;;;;;;5052898;28;20908;-66
2022/07/30 03:56:17;;;;;;;4.00;3.70;;;;;;;;;;5052963;28;20443;-65
2022/07/30 03:58:43;;;;;;;3.03;2.93;;;;;;;;;;5052607;28;20431;-66
2022/07/30 04:01:09;;;;;;;6.43;4.17;;;;;;;;;;5054142;28;20440;-65
2022/07/30 04:03:35;;;;;;;4.40;4.00;;;;;;;;;;5056365;28;20978;-66
2022/07/30 04:06:01;;;;;;;4.67;3.83;;;;;;;;;;5056493;28;20418;-66
2022/07/30 04:08:27;;;;;;;4.00;3.70;;;;;;;;;;5056578;28;20445;-66
2022/07/30 04:10:53;;;;;;;6.50;4.00;;;;;;;;;;5056867;28;20501;-66
2022/07/30 04:13:19;;;;;;;3.80;3.50;;;;;;;;;;5056770;28;20946;-66
2022/07/30 04:15:54;;;;;;;7.63;3.60;;;;;;;;;;5057066;28;20422;-66
2022/07/30 04:18:21;;;;;;;3.90;3.50;;;;;;;;;;5056569;28;20455;-66
2022/07/30 04:20:48;;;;;;;3.50;3.37;;;;;;;;;;5056485;28;20461;-65
2022/07/30 04:23:15;;;;;;;4.33;3.90;;;;;;;;;;5056649;28;20959;-68
2022/07/30 04:25:41;;;;;;;4.20;4.00;;;;;;;;;;5038680;28;20422;-66
2022/07/30 04:28:09;;;;;;;4.07;3.60;;;;;;;;;;5056569;28;21015;-65
2022/07/30 04:30:35;;;;;;;5.80;3.80;;;;;;;;;;5056509;28;20421;-65
2022/07/30 04:33:02;;;;;;;4.27;3.83;;;;;;;;;;5056412;28;20410;-66
2022/07/30 04:35:29;;;;;;;3.97;3.87;;;;;;;;;;5056327;28;20410;-66
2022/07/30 04:37:55;;;;;;;3.47;3.33;;;;;;;;;;5056380;28;20392;-66
2022/07/30 04:40:21;;;;;;;3.87;3.63;;;;;;;;;;5056525;28;20417;-65
2022/07/30 04:42:47;;;;;;;3.57;3.37;;;;;;;;;;5056295;28;20474;-65
2022/07/30 04:45:13;;;;;;;4.00;3.80;;;;;;;;;;5056204;28;20403;-66
2022/07/30 04:47:39;;;;;;;4.10;3.80;;;;;;;;;;5055846;28;20407;-66
2022/07/30 04:50:06;;;;;;;3.60;3.50;;;;;;;;;;5056178;28;20431;-66
2022/07/30 04:52:33;;;;;;;4.47;4.17;;;;;;;;;;5056268;28;20419;-67
2022/07/30 04:55:01;;;;;;;3.83;3.63;;;;;;;;;;5056255;28;20410;-65
2022/07/30 04:57:28;;;;;;;4.50;3.80;;;;;;;;;;5056066;28;20787;-65
2022/07/30 04:59:54;;;;;;;3.80;3.40;;;;;;;;;;5055902;28;20388;-67
2022/07/30 05:02:22;;;;;;;4.17;3.70;;;;;;;;;;5055686;28;20467;-66
2022/07/30 05:04:49;;;;;;;3.70;3.60;;;;;;;;;;5055862;28;20387;-65
2022/07/30 05:07:16;;;;;;;3.90;3.70;;;;;;;;;;5055914;28;20408;-66
2022/07/30 05:09:43;;;;;;;3.43;3.13;;;;;;;;;;5055881;28;20819;-67
2022/07/30 05:12:08;;;;;;;8.80;4.17;;;;;;;;;;5055258;28;20405;-65
2022/07/30 05:14:34;;;;;;;3.90;3.73;;;;;;;;;;5055666;28;20412;-66
2022/07/30 05:17:00;;;;;;;4.53;3.47;;;;;;;;;;5055572;28;20438;-66
2022/07/30 05:19:27;;;;;;;3.63;3.43;;;;;;;;;;5055374;28;20458;-66
2022/07/30 05:21:53;;;;;;;4.63;3.37;;;;;;;;;;5055329;28;20466;-65
2022/07/30 05:24:19;;;;;;;4.37;3.60;;;;;;;;;;5055731;28;20400;-65
2022/07/30 05:26:45;;;;;;;6.90;3.30;;;;;;;;;;5037502;28;20423;-65
2022/07/30 05:29:11;;;;;;;4.00;3.80;;;;;;;;;;5055447;28;20403;-66
2022/07/30 05:31:37;;;;;;;4.13;3.47;;;;;;;;;;5055216;28;20415;-66
2022/07/30 05:34:03;;;;;;;3.87;3.67;;;;;;;;;;5055402;28;20401;-66
2022/07/30 05:36:29;;;;;;;3.90;3.70;;;;;;;;;;5055319;28;20427;-66
2022/07/30 05:38:55;;;;;;;13.47;12.10;;;;;;;;;;5055070;28;20400;-67
2022/07/30 05:41:21;;;;;;;4.07;3.97;;;;;;;;;;5055001;28;20415;-66
2022/07/30 05:43:47;;;;;;;4.73;3.97;;;;;;;;;;5055399;28;20424;-66
2022/07/30 05:46:13;;;;;;;11.10;8.43;;;;;;;;;;5054901;28;20886;-66
2022/07/30 05:48:39;;;;;;;13.90;9.70;;;;;;;;;;5054847;28;20761;-67
2022/07/30 05:51:05;;;;;;;6.43;5.80;;;;;;;;;;5055064;28;20399;-66
2022/07/30 05:53:31;;;;;;;4.97;4.60;;;;;;;;;;5054998;28;20876;-66
2022/07/30 05:55:57;;;;;;;5.13;4.63;;;;;;;;;;5055089;28;20410;-68
2022/07/30 05:58:23;;;;;;;4.80;4.40;;;;;;;;;;5054815;28;20414;-68
2022/07/30 06:00:49;;;;;;;4.53;3.40;;;;;;;;;;5054821;28;20867;-68
2022/07/30 06:03:15;;;;;;;4.90;4.60;;;;;;;;;;5054821;28;20467;-67
2022/07/30 06:05:41;;;;;;;8.17;3.27;;;;;;;;;;5054768;28;20455;-68
2022/07/30 06:08:07;;;;;;;3.90;3.80;;;;;;;;;;5054637;28;20501;-67
2022/07/30 06:10:33;;;;;;;5.23;3.83;;;;;;;;;;5036613;28;20431;-68
2022/07/30 06:12:59;;;;;;;3.90;3.67;;;;;;;;;;5054492;28;20565;-68
2022/07/30 06:15:25;;;;;;;52.23;32.87;;;;;;;;;;5054683;28;20406;-67
2022/07/30 06:17:51;;;;;;;10.57;4.80;;;;;;;;;;5054295;28;20461;-68
2022/07/30 06:20:18;;;;;;;7.13;4.87;;;;;;;;;;5054283;28;20462;-67
2022/07/30 06:22:44;;;;;;;8.27;7.20;;;;;;;;;;5054593;28;20468;-68
2022/07/30 06:25:10;;;;;;;7.73;3.93;;;;;;;;;;5054543;28;20395;-67
2022/07/30 06:27:36;;;;;;;8.73;4.10;;;;;;;;;;5054630;28;20411;-67
2022/07/30 06:30:07;;;;;;;4.07;3.77;;;;;;;;;;5054487;28;20939;-68
2022/07/30 06:32:33;;;;;;;5.50;3.60;;;;;;;;;;5053868;28;20404;-67
2022/07/30 06:34:59;;;;;;;3.87;3.67;;;;;;;;;;5054141;28;20924;-67
2022/07/30 06:37:25;;;;;;;6.00;4.70;;;;;;;;;;5053919;28;20410;-66
2022/07/30 06:39:51;;;;;;;4.00;3.80;;;;;;;;;;5053933;28;20776;-67
2022/07/30 06:42:17;;;;;;;4.20;3.90;;;;;;;;;;5053818;28;20459;-67
2022/07/30 06:44:43;;;;;;;5.90;4.20;;;;;;;;;;5053913;28;20403;-67
2022/07/30 06:47:09;;;;;;;4.83;3.63;;;;;;;;;;5053686;28;20465;-66
2022/07/30 06:49:36;;;;;;;3.33;3.00;;;;;;;;;;5053680;28;20403;-67
2022/07/30 06:52:02;;;;;;;3.37;3.23;;;;;;;;;;5053800;28;20555;-66
2022/07/30 06:54:28;;;;;;;5.60;4.00;;;;;;;;;;5053788;28;20901;-66
2022/07/30 06:56:54;;;;;;;5.23;3.90;;;;;;;;;;5053653;28;20409;-68
2022/07/30 06:59:21;;;;;;;3.73;3.43;;;;;;;;;;5053862;28;20401;-67
2022/07/30 07:01:47;;;;;;;5.53;3.57;;;;;;;;;;5053429;28;21070;-65
2022/07/30 07:04:12;;;;;;;4.37;3.13;;;;;;;;;;5053682;28;20937;-67
2022/07/30 07:06:38;;;;;;;9.57;3.40;;;;;;;;;;5053408;28;20402;-67
2022/07/30 07:09:04;;;;;;;8.07;3.10;;;;;;;;;;5053440;28;20892;-67
2022/07/30 07:11:30;;;;;;;3.80;3.43;;;;;;;;;;5053467;28;20526;-67
2022/07/30 07:13:57;;;;;;;3.67;3.37;;;;;;;;;;5053441;28;20504;-67
2022/07/30 07:16:26;;;;;;;4.50;3.23;;;;;;;;;;5053198;28;20762;-66
2022/07/30 07:18:52;;;;;;;5.20;3.53;;;;;;;;;;5053243;28;20402;-66
2022/07/30 07:21:19;;;;;;;3.67;3.47;;;;;;;;;;5053302;28;20401;-65
2022/07/30 07:23:47;;;;;;;3.20;2.93;;;;;;;;;;5053341;28;20808;-67
2022/07/30 07:26:13;;;;;;;2.90;2.70;;;;;;;;;;5053084;28;20761;-65
2022/07/30 07:28:39;;;;;;;3.70;3.23;;;;;;;;;;5053124;28;20817;-68
2022/07/30 07:31:05;;;;;;;6.13;3.20;;;;;;;;;;5052795;28;20406;-67
2022/07/30 07:33:31;;;;;;;3.37;2.70;;;;;;;;;;5053236;28;20407;-67
2022/07/30 07:35:57;;;;;;;6.63;3.23;;;;;;;;;;5052450;28;20879;-67
2022/07/30 07:38:23;;;;;;;4.07;2.73;;;;;;;;;;5053158;28;20418;-67
2022/07/30 07:40:49;;;;;;;4.90;3.20;;;;;;;;;;5053109;28;20452;-66
2022/07/30 07:43:15;;;;;;;2.60;2.43;;;;;;;;;;5053109;28;20520;-67
2022/07/30 07:45:42;;;;;;;3.83;3.30;;;;;;;;;;5053080;28;20394;-66
2022/07/30 07:48:08;;;;;;;2.57;2.47;;;;;;;;;;5053368;28;20417;-67
2022/07/30 07:50:34;;;;;;;16.90;15.23;;;;;;;;;;5053059;28;20401;-66
2022/07/30 07:53:00;;;;;;;13.30;2.70;;;;;;;;;;5052995;28;20529;-68
2022/07/30 07:55:26;;;;;;;20.63;6.37;;;;;;;;;;5052981;28;20497;-68
2022/07/30 07:57:53;;;;;;;3.03;2.80;;;;;;;;;;5053036;28;20415;-68
2022/07/30 08:00:19;;;;;;;11.83;3.50;;;;;;;;;;5052932;28;20397;-68
2022/07/30 08:02:45;;;;;;;3.13;2.87;;;;;;;;;;5052847;28;20470;-68
2022/07/30 08:05:12;;;;;;;2.87;2.67;;;;;;;;;;5052716;28;20890;-67
2022/07/30 08:07:38;;;;;;;10.63;3.10;;;;;;;;;;5053013;28;20398;-69
2022/07/30 08:10:05;;;;;;;4.20;3.20;;;;;;;;;;5052979;28;20427;-71
2022/07/30 08:12:31;;;;;;;9.93;2.60;;;;;;;;;;5052972;28;20421;-68
2022/07/30 08:14:57;;;;;;;3.03;2.83;;;;;;;;;;5052978;28;20406;-71
2022/07/30 08:17:23;;;;;;;3.60;3.40;;;;;;;;;;5053025;28;20417;-67
2022/07/30 08:19:49;;;;;;;4.87;3.27;;;;;;;;;;5052579;28;20462;-68
2022/07/30 08:22:15;;;;;;;3.60;3.37;;;;;;;;;;5052728;28;20496;-70
2022/07/30 08:24:41;;;;;;;5.80;3.30;;;;;;;;;;5052777;28;20821;-68
2022/07/30 08:27:07;;;;;;;5.13;3.23;;;;;;;;;;5052705;28;20906;-71
2022/07/30 08:29:33;;;;;;;4.60;3.30;;;;;;;;;;5052604;28;20468;-69
2022/07/30 08:31:59;;;;;;;3.40;3.20;;;;;;;;;;5052246;28;20453;-71
2022/07/30 08:34:25;;;;;;;3.37;3.07;;;;;;;;;;5052559;28;20405;-69
2022/07/30 08:36:51;;;;;;;4.63;2.87;;;;;;;;;;5052430;28;20965;-70
2022/07/30 08:39:17;;;;;;;2.70;2.60;;;;;;;;;;5052585;28;20414;-71
2022/07/30 08:41:44;;;;;;;8.53;3.33;;;;;;;;;;5051928;28;20478;-69
2022/07/30 08:44:11;;;;;;;8.37;6.50;;;;;;;;;;5052817;28;20409;-69
2022/07/30 08:46:40;;;;;;;13.10;3.40;;;;;;;;;;5051875;28;20381;-67
2022/07/30 08:49:07;;;;;;;4.67;3.20;;;;;;;;;;5055312;28;20398;-68
2022/07/30 08:51:34;;;;;;;3.23;2.90;;;;;;;;;;5056033;28;20481;-67
2022/07/30 08:54:00;;;;;;;6.80;2.50;;;;;;;;;;5056202;28;20403;-69
2022/07/30 08:56:27;;;;;;;3.93;2.63;;;;;;;;;;5056394;28;20392;-66
2022/07/30 08:58:54;;;;;;;4.00;2.70;;;;;;;;;;5038320;28;20918;-67
2022/07/30 09:01:21;;;;;;;10.70;2.77;;;;;;;;;;5054846;28;20406;-68
2022/07/30 09:03:47;;;;;;;2.93;2.73;;;;;;;;;;5055267;28;20428;-67
2022/07/30 09:06:13;;;;;;;4.83;2.67;;;;;;;;;;5056631;28;20393;-68
2022/07/30 09:08:40;;;;;;;2.87;2.37;;;;;;;;;;5056158;28;20732;-68
2022/07/30 09:11:06;;;;;;;2.07;1.97;;;;;;;;;;5056896;28;20464;-69
2022/07/30 09:13:40;;;;;;;2.67;2.10;;;;;;;;;;5055806;28;20410;-67
2022/07/30 09:16:06;;;;;;;2.83;2.30;;;;;;;;;;5055630;28;20485;-66
2022/07/30 09:18:43;;;;;;;2.07;1.93;;;;;;;;;;5055841;28;20417;-67
2022/07/30 09:21:25;;;;;;;3.07;2.30;;;;;;;;;;5055677;28;20500;-66
2022/07/30 09:23:57;;;;;;;2.73;2.30;;;;;;;;;;5055576;28;20909;-66
2022/07/30 09:26:23;;;;;;;2.60;2.40;;;;;;;;;;5055564;28;20892;-66
2022/07/30 09:28:49;;;;;;;5.30;2.30;;;;;;;;;;5055545;28;20514;-66
2022/07/30 09:31:16;;;;;;;2.70;2.20;;;;;;;;;;5055436;28;20411;-66
2022/07/30 09:33:43;;;;;;;3.07;2.50;;;;;;;;;;5055546;28;20448;-67
2022/07/30 09:36:10;;;;;;;3.97;2.27;;;;;;;;;;5055154;28;20917;-66
2022/07/30 09:38:52;;;;;;;2.00;1.90;;;;;;;;;;5055284;28;20419;-67
2022/07/30 09:41:21;;;;;;;1.90;1.80;;;;;;;;;;5055191;28;20413;-67
2022/07/30 09:43:48;;;;;;;1.93;1.60;;;;;;;;;;5055039;28;21172;-66
2022/07/30 09:46:15;;;;;;;1.63;1.57;;;;;;;;;;5055316;28;20459;-66
2022/07/30 09:48:41;;;;;;;3.13;1.73;;;;;;;;;;5055092;28;20740;-66
2022/07/30 09:51:07;;;;;;;2.17;1.90;;;;;;;;;;5055020;28;20410;-67
2022/07/30 09:53:33;;;;;;;2.30;2.00;;;;;;;;;;5054925;28;20771;-67
2022/07/30 09:55:59;;;;;;;2.03;1.57;;;;;;;;;;5054786;28;20770;-67
2022/07/30 09:58:37;;;;;;;5.63;1.63;;;;;;;;;;5054587;28;20399;-67
2022/07/30 10:01:03;;;;;;;7.83;2.50;;;;;;;;;;5054797;28;20399;-67
2022/07/30 10:03:29;;;;;;;2.73;1.87;;;;;;;;;;5054613;28;20465;-67
2022/07/30 10:05:56;;;;;;;2.97;2.17;;;;;;;;;;5054951;28;20494;-67
2022/07/30 10:08:37;;;;;;;2.30;2.10;;;;;;;;;;5054603;28;20413;-66
2022/07/30 10:11:04;;;;;;;2.33;2.20;;;;;;;;;;5054551;28;20407;-69
2022/07/30 10:13:30;;;;;;;3.67;2.03;;;;;;;;;;5054511;28;20411;-66
2022/07/30 10:15:56;;;;;;;2.10;2.03;;;;;;;;;;5054490;28;20461;-67
2022/07/30 10:18:22;;;;;;;2.50;1.80;;;;;;;;;;5054551;28;20890;-66
2022/07/30 10:20:48;;;;;;;2.50;1.60;;;;;;;;;;5054034;28;20466;-67
2022/07/30 10:23:15;;;;;;;3.20;2.17;;;;;;;;;;5053971;28;20465;-67
2022/07/30 10:25:41;;;;;;;9.17;2.30;;;;;;;;;;5054004;28;20486;-65
2022/07/30 10:28:07;;;;;;;2.67;2.60;;;;;;;;;;5053949;28;20497;-65
2022/07/30 10:30:33;;;;;;;3.93;1.90;;;;;;;;;;5036351;28;20423;-65
2022/07/30 10:33:00;;;;;;;5.70;1.90;;;;;;;;;;5054186;28;20924;-68
2022/07/30 10:35:26;;;;;;;2.13;1.90;;;;;;;;;;5054033;28;20407;-65
2022/07/30 10:37:53;;;;;;;1.37;1.37;;;;;;;;;;5053783;28;20928;-66
2022/07/30 10:40:23;;;;;;;2.20;1.67;;;;;;;;;;5053897;28;20414;-67
2022/07/30 10:43:03;;;;;;;7.60;2.03;;;;;;;;;;5052841;28;20557;-67
2022/07/30 10:45:48;;;;;;;2.37;2.13;;;;;;;;;;5053558;28;20897;-68
2022/07/30 10:48:15;;;;;;;1.70;1.60;;;;;;;;;;5054015;28;20445;-68
2022/07/30 10:50:55;;;;;;;2.07;1.90;;;;;;;;;;5053709;28;20395;-67
2022/07/30 10:53:34;;;;;;;6.00;1.90;;;;;;;;;;5053884;28;20404;-67
2022/07/30 10:56:11;;;;;;;11.20;2.47;;;;;;;;;;5053680;28;20403;-67
2022/07/30 10:58:55;;;;;;;5.03;2.00;;;;;;;;;;5054010;28;20395;-67
2022/07/30 11:01:21;;;;;;;1.83;1.73;;;;;;;;;;5053441;28;20391;-67
2022/07/30 11:04:07;;;;;;;2.40;2.00;;;;;;;;;;5053512;28;20471;-68
2022/07/30 11:06:33;;;;;;;4.10;1.93;;;;;;;;;;5053199;28;20425;-66
2022/07/30 11:09:00;;;;;;;3.80;1.80;;;;;;;;;;5053479;28;20737;-67
2022/07/30 11:11:29;;;;;;;3.67;2.37;;;;;;;;;;5052788;28;20398;-67
2022/07/30 11:14:01;;;;;;;2.00;1.83;;;;;;;;;;5053283;28;20391;-67
2022/07/30 11:16:33;;;;;;;1.90;1.90;;;;;;;;;;5053462;28;20407;-67
2022/07/30 11:19:04;;;;;;;1.70;1.70;;;;;;;;;;5052988;28;20941;-67
2022/07/30 11:21:31;;;;;;;2.90;2.10;;;;;;;;;;5053025;28;20503;-69
2022/07/30 11:23:57;;;;;;;2.20;1.83;;;;;;;;;;5053127;28;20415;-68
2022/07/30 11:26:38;;;;;;;2.33;2.23;;;;;;;;;;5053291;28;20406;-67
2022/07/30 11:29:27;;;;;;;5.03;2.10;;;;;;;;;;5052821;28;20408;-67
2022/07/30 11:31:55;;;;;;;2.33;2.10;;;;;;;;;;5052691;28;20924;-67
2022/07/30 11:34:24;;;;;;;3.17;2.37;;;;;;;;;;5052977;28;20788;-67
2022/07/30 11:37:02;;;;;;;6.47;1.90;;;;;;;;;;5053303;28;20499;-70
2022/07/30 11:39:47;;;;;;;4.07;2.10;;;;;;;;;;5053002;28;20406;-68
2022/07/30 11:42:32;;;;;;;1.90;1.80;;;;;;;;;;5053135;28;20512;-69
2022/07/30 11:45:17;;;;;;;1.77;1.67;;;;;;;;;;5053202;28;20780;-68
2022/07/30 11:48:01;;;;;;;2.10;1.97;;;;;;;;;;5053388;28;20484;-69
2022/07/30 11:50:31;;;;;;;4.67;1.70;;;;;;;;;;5053221;28;20403;-68
2022/07/30 11:53:00;;;;;;;2.13;1.87;;;;;;;;;;5035323;28;20419;-67
2022/07/30 11:55:43;;;;;;;12.40;2.07;;;;;;;;;;5053157;28;20403;-68
2022/07/30 11:58:10;;;;;;;4.20;1.73;;;;;;;;;;5053126;28;20906;-68
2022/07/30 12:00:40;;;;;;;2.53;1.63;;;;;;;;;;5053431;28;20414;-69
2022/07/30 12:03:10;;;;;;;2.50;1.73;;;;;;;;;;5053004;28;20477;-67
2022/07/30 12:05:36;;;;;;;2.40;1.87;;;;;;;;;;5053366;28;20494;-66
2022/07/30 12:08:02;;;;;;;1.93;1.83;;;;;;;;;;5052911;28;20867;-69
2022/07/30 12:10:28;;;;;;;4.53;1.77;;;;;;;;;;5052987;28;20395;-69
2022/07/30 12:13:06;;;;;;;1.80;1.70;;;;;;;;;;5053257;28;20438;-69
2022/07/30 12:15:33;;;;;;;1.73;1.63;;;;;;;;;;5053037;28;20391;-72
2022/07/30 12:18:00;;;;;;;4.37;2.23;;;;;;;;;;5053159;28;20761;-69
2022/07/30 12:20:26;;;;;;;2.97;1.90;;;;;;;;;;5052853;28;20474;-67
2022/07/30 12:22:52;;;;;;;4.53;2.37;;;;;;;;;;5055472;28;20458;-68
2022/07/30 12:25:19;;;;;;;2.13;1.83;;;;;;;;;;5056614;28;20878;-70
2022/07/30 12:27:46;;;;;;;2.30;1.83;;;;;;;;;;5056429;28;20506;-68
2022/07/30 12:30:13;;;;;;;2.27;2.07;;;;;;;;;;5056540;28;20900;-69
2022/07/30 12:32:39;;;;;;;1.87;1.77;;;;;;;;;;5055215;28;20415;-68
2022/07/30 12:35:05;;;;;;;1.63;1.50;;;;;;;;;;5056622;28;20419;-67
2022/07/30 12:37:31;;;;;;;2.60;1.80;;;;;;;;;;5056369;28;20464;-69
2022/07/30 12:40:09;;;;;;;1.57;1.57;;;;;;;;;;5056516;28;20409;-70
2022/07/30 12:42:35;;;;;;;2.30;1.77;;;;;;;;;;5056043;28;20458;-68
2022/07/30 12:45:01;;;;;;;1.77;1.63;;;;;;;;;;5056169;28;20407;-68
2022/07/30 12:47:28;;;;;;;1.83;1.83;;;;;;;;;;5055965;28;20483;-70
2022/07/30 12:49:55;;;;;;;2.50;1.40;;;;;;;;;;5055834;28;20493;-70
2022/07/30 12:52:25;;;;;;;2.67;2.47;;;;;;;;;;5056364;28;20395;-70
2022/07/30 12:54:57;;;;;;;2.60;1.60;;;;;;;;;;5056399;28;20407;-68
2022/07/30 12:57:23;;;;;;;3.23;1.47;;;;;;;;;;5056191;28;20965;-70
2022/07/30 13:00:01;;;;;;;1.93;1.90;;;;;;;;;;5038239;28;20529;-70
2022/07/30 13:02:31;;;;;;;1.60;1.50;;;;;;;;;;5056014;28;20469;-72
2022/07/30 13:04:56;;;;;;;2.00;1.90;;;;;;;;;;5055956;28;20400;-70
2022/07/30 13:07:22;;;;;;;1.87;1.77;;;;;;;;;;5056265;28;20768;-72
2022/07/30 13:10:05;;;;;;;2.40;1.50;;;;;;;;;;5055943;28;20396;-70
2022/07/30 13:12:31;;;;;;;3.87;1.80;;;;;;;;;;5055702;28;20399;-70
2022/07/30 13:14:57;;;;;;;12.13;2.10;;;;;;;;;;5055865;28;20399;-71
2022/07/30 13:17:23;;;;;;;2.50;1.60;;;;;;;;;;5055698;28;20526;-71
2022/07/30 13:19:49;;;;;;;2.30;1.60;;;;;;;;;;5055396;28;20236;-71
2022/07/30 13:22:15;;;;;;;1.83;1.73;;;;;;;;;;5055433;28;20211;-70
2022/07/30 13:24:41;;;;;;;3.20;2.07;;;;;;;;;;5055522;28;20395;-72
2022/07/30 13:27:07;;;;;;;5.13;1.50;;;;;;;;;;5055604;28;20862;-70
2022/07/30 13:29:33;;;;;;;11.90;10.80;;;;;;;;;;5055466;28;20171;-71
2022/07/30 13:31:59;;;;;;;1.43;1.30;;;;;;;;;;5055443;28;20398;-71
2022/07/30 13:34:25;;;;;;;1.93;1.63;;;;;;;;;;5054714;28;20754;-70
2022/07/30 13:36:51;;;;;;;1.70;1.70;;;;;;;;;;5055314;28;20399;-70
2022/07/30 13:39:17;;;;;;;2.50;1.60;;;;;;;;;;5055220;28;20388;-71
2022/07/30 13:41:43;;;;;;;1.60;1.53;;;;;;;;;;5055211;28;20199;-70
2022/07/30 13:44:09;;;;;;;1.50;1.50;;;;;;;;;;5055329;28;20631;-71
2022/07/30 13:46:35;;;;;;;3.30;1.53;;;;;;;;;;5055183;28;20395;-71
2022/07/30 13:49:01;;;;;;;2.70;2.07;;;;;;;;;;5055161;28;20441;-71
2022/07/30 13:51:27;;;;;;;2.50;1.40;;;;;;;;;;5055161;28;20406;-71
2022/07/30 13:53:54;;;;;;;2.77;1.50;;;;;;;;;;5055300;28;20407;-71
2022/07/30 13:56:20;;;;;;;1.60;1.50;;;;;;;;;;5055059;28;20403;-71
2022/07/30 13:58:46;;;;;;;1.70;1.60;;;;;;;;;;5055096;28;20870;-71
2022/07/30 14:01:12;;;;;;;1.70;1.60;;;;;;;;;;5054994;28;20400;-71
2022/07/30 14:03:38;;;;;;;1.60;1.60;;;;;;;;;;5054830;28;20816;-71
2022/07/30 14:06:04;;;;;;;4.73;2.57;;;;;;;;;;5054845;28;20400;-72
2022/07/30 14:08:30;;;;;;;3.00;2.30;;;;;;;;;;5054806;28;20400;-70
2022/07/30 14:10:57;;;;;;;3.27;2.10;;;;;;;;;;5054936;28;20403;-71
2022/07/30 14:13:24;;;;;;;2.10;1.50;;;;;;;;;;5054574;28;20400;-72
2022/07/30 14:15:50;;;;;;;1.90;1.80;;;;;;;;;;5054652;28;20473;-71
2022/07/30 14:18:16;;;;;;;1.83;1.77;;;;;;;;;;5054638;28;20486;-71
2022/07/30 14:20:42;;;;;;;1.80;1.70;;;;;;;;;;5036549;28;20474;-71
2022/07/30 14:23:08;;;;;;;2.00;1.90;;;;;;;;;;5054335;28;20803;-71
2022/07/30 14:25:34;;;;;;;2.73;1.50;;;;;;;;;;5054527;28;20862;-70
2022/07/30 14:28:00;;;;;;;1.90;1.80;;;;;;;;;;5054409;28;20396;-71
2022/07/30 14:30:26;;;;;;;6.57;1.70;;;;;;;;;;5054430;28;20400;-71
2022/07/30 14:32:52;;;;;;;3.23;2.10;;;;;;;;;;5054375;28;20545;-71
2022/07/30 14:35:18;;;;;;;3.60;2.70;;;;;;;;;;5054575;28;20403;-70
2022/07/30 14:37:44;;;;;;;2.00;1.90;;;;;;;;;;5054239;28;20403;-71
2022/07/30 14:40:11;;;;;;;2.80;1.70;;;;;;;;;;5054165;28;20403;-71
2022/07/30 14:42:38;;;;;;;1.90;1.73;;;;;;;;;;5054083;28;20492;-71
2022/07/30 14:45:05;;;;;;;1.57;1.57;;;;;;;;;;5053514;28;20412;-70
2022/07/30 14:47:31;;;;;;;2.10;1.90;;;;;;;;;;5053665;28;20399;-71